sensor_id;sensor_type;location;lat;lon;timestamp;pressure;altitude;pressure_sealevel;temperature;humidity
61761;BME280;47664;51.660;-0.100;2022-08-21T00:01:43;100904.98;;;18.67;51.51
61761;BME280;47664;51.660;-0.100;2022-08-21T00:04:16;100905.27;;;18.46;51.61
61761;BME280;47664;51.660;-0.100;2022-08-21T00:06:48;100911.93;;;18.46;52.42
61761;BME280;47664;51.660;-0.100;2022-08-21T00:09:20;100903.95;;;18.85;51.41
61761;BME280;47664;51.660;-0.100;2022-08-21T00:11:53;100903.63;;;18.61;51.34
61761;BME280;47664;51.660;-0.100;2022-08-21T00:14:25;100904.57;;;18.68;51.47
61761;BME280;47664;51.660;-0.100;2022-08-21T00:16:57;100906.64;;;18.71;51.04
61761;BME280;47664;51.660;-0.100;2022-08-21T00:19:29;100903.12;;;18.89;50.74
61761;BME280;47664;51.660;-0.100;2022-08-21T00:22:02;100903.33;;;18.76;50.88
61761;BME280;47664;51.660;-0.100;2022-08-21T00:24:34;100902.95;;;18.77;50.92
61761;BME280;47664;51.660;-0.100;2022-08-21T00:27:07;100905.75;;;18.96;50.54
61761;BME280;47664;51.660;-0.100;2022-08-21T00:29:39;100906.16;;;19.14;50.15
61761;BME280;47664;51.660;-0.100;2022-08-21T00:32:11;100903.99;;;19.00;51.16
61761;BME280;47664;51.660;-0.100;2022-08-21T00:34:43;100907.59;;;18.76;50.84
61761;BME280;47664;51.660;-0.100;2022-08-21T00:37:15;100902.94;;;18.90;50.61
61761;BME280;47664;51.660;-0.100;2022-08-21T00:39:47;100897.56;;;18.88;50.64
61761;BME280;47664;51.660;-0.100;2022-08-21T00:42:19;100895.87;;;18.51;51.51
61761;BME280;47664;51.660;-0.100;2022-08-21T00:44:52;100892.18;;;18.65;51.78
61761;BME280;47664;51.660;-0.100;2022-08-21T00:47:24;100896.77;;;18.28;52.28
61761;BME280;47664;51.660;-0.100;2022-08-21T00:49:56;100890.25;;;18.36;51.61
61761;BME280;47664;51.660;-0.100;2022-08-21T00:52:28;100889.51;;;19.15;50.87
61761;BME280;47664;51.660;-0.100;2022-08-21T00:55:02;100890.57;;;18.69;50.87
61761;BME280;47664;51.660;-0.100;2022-08-21T00:57:38;100889.52;;;18.47;51.26
61761;BME280;47664;51.660;-0.100;2022-08-21T01:00:10;100887.51;;;18.56;51.09
61761;BME280;47664;51.660;-0.100;2022-08-21T01:02:42;100884.43;;;18.90;50.91
61761;BME280;47664;51.660;-0.100;2022-08-21T01:05:16;100878.81;;;18.79;51.61
61761;BME280;47664;51.660;-0.100;2022-08-21T01:07:48;100878.55;;;17.77;52.23
61761;BME280;47664;51.660;-0.100;2022-08-21T01:10:21;100879.14;;;18.29;51.83
61761;BME280;47664;51.660;-0.100;2022-08-21T01:12:54;100879.48;;;18.63;52.00
61761;BME280;47664;51.660;-0.100;2022-08-21T01:15:29;100876.96;;;18.95;51.40
61761;BME280;47664;51.660;-0.100;2022-08-21T01:18:02;100877.92;;;18.58;51.37
61761;BME280;47664;51.660;-0.100;2022-08-21T01:20:36;100879.12;;;18.52;51.33
61761;BME280;47664;51.660;-0.100;2022-08-21T01:23:10;100880.37;;;19.22;50.58
61761;BME280;47664;51.660;-0.100;2022-08-21T01:25:43;100887.90;;;18.22;52.00
61761;BME280;47664;51.660;-0.100;2022-08-21T01:28:17;100888.05;;;18.46;51.60
61761;BME280;47664;51.660;-0.100;2022-08-21T01:30:50;100885.40;;;18.58;51.43
61761;BME280;47664;51.660;-0.100;2022-08-21T01:33:24;100885.38;;;18.57;51.60
61761;BME280;47664;51.660;-0.100;2022-08-21T01:35:56;100888.98;;;18.77;51.31
61761;BME280;47664;51.660;-0.100;2022-08-21T01:38:29;100891.35;;;18.84;51.12
61761;BME280;47664;51.660;-0.100;2022-08-21T01:41:01;100890.80;;;18.55;51.23
61761;BME280;47664;51.660;-0.100;2022-08-21T01:43:33;100895.63;;;18.54;52.10
61761;BME280;47664;51.660;-0.100;2022-08-21T01:46:05;100900.70;;;18.60;51.97
61761;BME280;47664;51.660;-0.100;2022-08-21T01:48:37;100906.79;;;18.09;52.71
61761;BME280;47664;51.660;-0.100;2022-08-21T01:51:10;100907.97;;;18.15;53.37
61761;BME280;47664;51.660;-0.100;2022-08-21T01:53:43;100905.11;;;18.38;52.59
61761;BME280;47664;51.660;-0.100;2022-08-21T01:56:18;100903.76;;;17.94;52.97
61761;BME280;47664;51.660;-0.100;2022-08-21T01:58:50;100905.55;;;18.51;52.83
61761;BME280;47664;51.660;-0.100;2022-08-21T02:01:22;100908.11;;;18.26;53.18
61761;BME280;47664;51.660;-0.100;2022-08-21T02:03:54;100910.46;;;18.27;53.30
61761;BME280;47664;51.660;-0.100;2022-08-21T02:06:27;100906.48;;;17.30;54.64
61761;BME280;47664;51.660;-0.100;2022-08-21T02:08:59;100905.46;;;17.80;54.12
61761;BME280;47664;51.660;-0.100;2022-08-21T02:11:32;100902.71;;;17.81;54.20
61761;BME280;47664;51.660;-0.100;2022-08-21T02:14:04;100900.74;;;17.96;54.29
61761;BME280;47664;51.660;-0.100;2022-08-21T02:16:37;100899.65;;;17.26;56.13
61761;BME280;47664;51.660;-0.100;2022-08-21T02:19:10;100895.58;;;17.21;56.33
61761;BME280;47664;51.660;-0.100;2022-08-21T02:21:42;100893.50;;;17.22;55.89
61761;BME280;47664;51.660;-0.100;2022-08-21T02:24:15;100892.47;;;17.43;55.57
61761;BME280;47664;51.660;-0.100;2022-08-21T02:26:47;100889.26;;;17.67;54.47
61761;BME280;47664;51.660;-0.100;2022-08-21T02:29:19;100887.33;;;18.18;54.02
61761;BME280;47664;51.660;-0.100;2022-08-21T02:31:51;100884.96;;;17.86;53.90
61761;BME280;47664;51.660;-0.100;2022-08-21T02:34:24;100882.90;;;17.96;53.83
61761;BME280;47664;51.660;-0.100;2022-08-21T02:36:55;100881.24;;;18.01;53.34
61761;BME280;47664;51.660;-0.100;2022-08-21T02:39:27;100881.16;;;18.46;53.43
61761;BME280;47664;51.660;-0.100;2022-08-21T02:42:00;100882.84;;;18.02;53.67
61761;BME280;47664;51.660;-0.100;2022-08-21T02:44:32;100880.62;;;18.08;53.60
61761;BME280;47664;51.660;-0.100;2022-08-21T02:47:04;100878.18;;;18.04;53.63
61761;BME280;47664;51.660;-0.100;2022-08-21T02:49:36;100877.86;;;18.46;53.86
61761;BME280;47664;51.660;-0.100;2022-08-21T02:52:08;100873.88;;;17.40;54.32
61761;BME280;47664;51.660;-0.100;2022-08-21T02:54:40;100870.87;;;17.64;54.13
61761;BME280;47664;51.660;-0.100;2022-08-21T02:57:12;100870.64;;;17.57;54.54
61761;BME280;47664;51.660;-0.100;2022-08-21T02:59:45;100869.00;;;17.72;54.26
61761;BME280;47664;51.660;-0.100;2022-08-21T03:02:17;100870.05;;;17.93;54.01
61761;BME280;47664;51.660;-0.100;2022-08-21T03:04:49;100862.19;;;17.60;54.40
61761;BME280;47664;51.660;-0.100;2022-08-21T03:07:21;100863.31;;;17.65;54.50
61761;BME280;47664;51.660;-0.100;2022-08-21T03:09:53;100869.63;;;17.41;54.91
61761;BME280;47664;51.660;-0.100;2022-08-21T03:12:25;100871.43;;;17.53;55.27
61761;BME280;47664;51.660;-0.100;2022-08-21T03:14:57;100873.25;;;17.26;55.80
61761;BME280;47664;51.660;-0.100;2022-08-21T03:17:30;100877.21;;;17.48;54.79
61761;BME280;47664;51.660;-0.100;2022-08-21T03:20:03;100877.73;;;17.60;55.24
61761;BME280;47664;51.660;-0.100;2022-08-21T03:22:35;100874.43;;;17.90;54.47
61761;BME280;47664;51.660;-0.100;2022-08-21T03:25:08;100874.17;;;17.92;54.19
61761;BME280;47664;51.660;-0.100;2022-08-21T03:27:41;100871.10;;;17.54;54.68
61761;BME280;47664;51.660;-0.100;2022-08-21T03:30:15;100868.83;;;17.64;54.45
61761;BME280;47664;51.660;-0.100;2022-08-21T03:32:47;100874.43;;;17.25;54.66
61761;BME280;47664;51.660;-0.100;2022-08-21T03:35:19;100877.05;;;17.70;54.87
61761;BME280;47664;51.660;-0.100;2022-08-21T03:37:51;100876.75;;;17.49;54.79
61761;BME280;47664;51.660;-0.100;2022-08-21T03:40:25;100879.54;;;17.35;54.84
61761;BME280;47664;51.660;-0.100;2022-08-21T03:42:57;100871.65;;;17.70;54.25
61761;BME280;47664;51.660;-0.100;2022-08-21T03:45:30;100876.41;;;18.06;54.45
61761;BME280;47664;51.660;-0.100;2022-08-21T03:48:04;100878.27;;;17.10;55.49
61761;BME280;47664;51.660;-0.100;2022-08-21T03:50:39;100878.26;;;17.36;55.56
61761;BME280;47664;51.660;-0.100;2022-08-21T03:53:12;100880.32;;;17.45;54.83
61761;BME280;47664;51.660;-0.100;2022-08-21T03:55:46;100880.03;;;17.55;54.60
61761;BME280;47664;51.660;-0.100;2022-08-21T03:58:20;100889.59;;;17.23;55.10
61761;BME280;47664;51.660;-0.100;2022-08-21T04:00:56;100887.96;;;16.94;55.58
61761;BME280;47664;51.660;-0.100;2022-08-21T04:03:29;100886.22;;;17.52;55.61
61761;BME280;47664;51.660;-0.100;2022-08-21T04:06:01;100887.93;;;17.50;55.28
61761;BME280;47664;51.660;-0.100;2022-08-21T04:08:34;100890.18;;;17.90;54.91
61761;BME280;47664;51.660;-0.100;2022-08-21T04:11:07;100890.81;;;17.69;54.31
61761;BME280;47664;51.660;-0.100;2022-08-21T04:13:39;100887.87;;;17.61;54.43
61761;BME280;47664;51.660;-0.100;2022-08-21T04:16:11;100889.08;;;17.94;53.85
61761;BME280;47664;51.660;-0.100;2022-08-21T04:18:44;100889.30;;;17.88;54.08
61761;BME280;47664;51.660;-0.100;2022-08-21T04:21:16;100886.06;;;18.22;53.74
61761;BME280;47664;51.660;-0.100;2022-08-21T04:23:49;100890.69;;;17.55;54.20
61761;BME280;47664;51.660;-0.100;2022-08-21T04:26:21;100890.38;;;17.65;54.30
61761;BME280;47664;51.660;-0.100;2022-08-21T04:28:53;100887.66;;;17.12;55.07
61761;BME280;47664;51.660;-0.100;2022-08-21T04:31:26;100886.93;;;17.50;54.71
61761;BME280;47664;51.660;-0.100;2022-08-21T04:33:58;100889.85;;;17.48;54.33
61761;BME280;47664;51.660;-0.100;2022-08-21T04:36:30;100887.88;;;17.97;53.80
61761;BME280;47664;51.660;-0.100;2022-08-21T04:39:03;100887.48;;;17.99;53.73
61761;BME280;47664;51.660;-0.100;2022-08-21T04:41:36;100888.08;;;17.59;53.64
61761;BME280;47664;51.660;-0.100;2022-08-21T04:44:08;100889.29;;;17.32;54.36
61761;BME280;47664;51.660;-0.100;2022-08-21T04:46:40;100891.18;;;17.86;54.48
61761;BME280;47664;51.660;-0.100;2022-08-21T04:49:12;100892.94;;;17.80;54.10
61761;BME280;47664;51.660;-0.100;2022-08-21T04:51:45;100898.39;;;17.89;53.81
61761;BME280;47664;51.660;-0.100;2022-08-21T04:54:16;100908.23;;;17.89;53.65
61761;BME280;47664;51.660;-0.100;2022-08-21T04:56:48;100909.29;;;17.69;53.93
61761;BME280;47664;51.660;-0.100;2022-08-21T04:59:24;100904.33;;;17.78;54.01
61761;BME280;47664;51.660;-0.100;2022-08-21T05:01:59;100906.24;;;17.72;54.04
61761;BME280;47664;51.660;-0.100;2022-08-21T05:04:34;100903.24;;;17.48;54.48
61761;BME280;47664;51.660;-0.100;2022-08-21T05:07:11;100898.45;;;17.17;55.02
61761;BME280;47664;51.660;-0.100;2022-08-21T05:09:44;100899.06;;;17.52;54.86
61761;BME280;47664;51.660;-0.100;2022-08-21T05:12:17;100904.17;;;17.45;55.00
61761;BME280;47664;51.660;-0.100;2022-08-21T05:14:50;100904.08;;;17.30;54.85
61761;BME280;47664;51.660;-0.100;2022-08-21T05:17:22;100897.17;;;17.38;54.77
61761;BME280;47664;51.660;-0.100;2022-08-21T05:19:54;100894.55;;;17.42;54.58
61761;BME280;47664;51.660;-0.100;2022-08-21T05:22:26;100894.79;;;17.86;54.25
61761;BME280;47664;51.660;-0.100;2022-08-21T05:24:59;100893.42;;;17.43;54.60
61761;BME280;47664;51.660;-0.100;2022-08-21T05:27:31;100893.63;;;17.85;54.32
61761;BME280;47664;51.660;-0.100;2022-08-21T05:30:04;100895.63;;;17.60;54.20
61761;BME280;47664;51.660;-0.100;2022-08-21T05:32:37;100898.19;;;17.80;53.84
61761;BME280;47664;51.660;-0.100;2022-08-21T05:35:07;100903.53;;;17.40;54.97
61761;BME280;47664;51.660;-0.100;2022-08-21T05:37:40;100909.89;;;17.34;54.90
61761;BME280;47664;51.660;-0.100;2022-08-21T05:40:12;100916.72;;;17.71;54.60
61761;BME280;47664;51.660;-0.100;2022-08-21T05:42:45;100922.78;;;17.56;54.34
61761;BME280;47664;51.660;-0.100;2022-08-21T05:45:18;100928.37;;;17.48;54.01
61761;BME280;47664;51.660;-0.100;2022-08-21T05:47:50;100932.38;;;17.17;54.46
61761;BME280;47664;51.660;-0.100;2022-08-21T05:50:22;100933.57;;;17.57;54.17
61761;BME280;47664;51.660;-0.100;2022-08-21T05:52:54;100929.98;;;17.34;54.57
61761;BME280;47664;51.660;-0.100;2022-08-21T05:55:26;100937.84;;;17.64;54.23
61761;BME280;47664;51.660;-0.100;2022-08-21T05:57:58;100938.61;;;17.63;54.41
61761;BME280;47664;51.660;-0.100;2022-08-21T06:00:31;100944.38;;;17.64;54.73
61761;BME280;47664;51.660;-0.100;2022-08-21T06:03:03;100949.03;;;17.43;54.67
61761;BME280;47664;51.660;-0.100;2022-08-21T06:05:34;100947.27;;;17.42;54.62
61761;BME280;47664;51.660;-0.100;2022-08-21T06:08:07;100943.68;;;17.33;55.56
61761;BME280;47664;51.660;-0.100;2022-08-21T06:10:39;100940.52;;;17.49;55.42
61761;BME280;47664;51.660;-0.100;2022-08-21T06:13:11;100941.57;;;17.15;55.98
61761;BME280;47664;51.660;-0.100;2022-08-21T06:15:43;100937.33;;;17.01;56.36
61761;BME280;47664;51.660;-0.100;2022-08-21T06:18:16;100940.73;;;17.30;55.43
61761;BME280;47664;51.660;-0.100;2022-08-21T06:20:48;100944.54;;;17.83;54.63
61761;BME280;47664;51.660;-0.100;2022-08-21T06:23:20;100947.48;;;17.44;55.18
61761;BME280;47664;51.660;-0.100;2022-08-21T06:25:52;100947.15;;;17.73;54.89
61761;BME280;47664;51.660;-0.100;2022-08-21T06:28:24;100941.86;;;17.55;54.92
61761;BME280;47664;51.660;-0.100;2022-08-21T06:30:56;100937.25;;;17.75;54.73
61761;BME280;47664;51.660;-0.100;2022-08-21T06:33:28;100936.88;;;17.63;55.03
61761;BME280;47664;51.660;-0.100;2022-08-21T06:36:00;100944.02;;;17.58;54.94
61761;BME280;47664;51.660;-0.100;2022-08-21T06:38:32;100944.13;;;17.65;55.51
61761;BME280;47664;51.660;-0.100;2022-08-21T06:41:04;100945.43;;;17.72;54.92
61761;BME280;47664;51.660;-0.100;2022-08-21T06:43:37;100944.74;;;17.24;55.62
61761;BME280;47664;51.660;-0.100;2022-08-21T06:46:10;100941.49;;;17.18;56.00
61761;BME280;47664;51.660;-0.100;2022-08-21T06:48:42;100937.64;;;17.72;55.47
61761;BME280;47664;51.660;-0.100;2022-08-21T06:51:14;100937.01;;;17.17;55.35
61761;BME280;47664;51.660;-0.100;2022-08-21T06:53:47;100931.90;;;16.70;56.39
61761;BME280;47664;51.660;-0.100;2022-08-21T06:56:18;100932.66;;;17.06;56.46
61761;BME280;47664;51.660;-0.100;2022-08-21T06:58:51;100934.21;;;17.27;55.21
61761;BME280;47664;51.660;-0.100;2022-08-21T07:01:24;100933.59;;;18.08;54.33
61761;BME280;47664;51.660;-0.100;2022-08-21T07:03:57;100934.03;;;17.82;53.47
61761;BME280;47664;51.660;-0.100;2022-08-21T07:06:29;100937.88;;;18.16;53.52
61761;BME280;47664;51.660;-0.100;2022-08-21T07:09:01;100930.76;;;18.33;53.05
61761;BME280;47664;51.660;-0.100;2022-08-21T07:11:33;100928.31;;;18.53;52.41
61761;BME280;47664;51.660;-0.100;2022-08-21T07:14:06;100925.43;;;18.20;52.63
61761;BME280;47664;51.660;-0.100;2022-08-21T07:16:38;100918.27;;;19.02;51.58
61761;BME280;47664;51.660;-0.100;2022-08-21T07:19:10;100919.84;;;18.78;52.00
61761;BME280;47664;51.660;-0.100;2022-08-21T07:21:42;100908.86;;;18.90;51.43
61761;BME280;47664;51.660;-0.100;2022-08-21T07:24:15;100905.64;;;19.09;50.98
61761;BME280;47664;51.660;-0.100;2022-08-21T07:26:47;100907.18;;;18.78;50.53
61761;BME280;47664;51.660;-0.100;2022-08-21T07:29:19;100910.71;;;18.81;51.63
61761;BME280;47664;51.660;-0.100;2022-08-21T07:31:52;100919.18;;;18.25;52.24
61761;BME280;47664;51.660;-0.100;2022-08-21T07:34:24;100921.53;;;18.49;52.62
61761;BME280;47664;51.660;-0.100;2022-08-21T07:36:56;100916.78;;;18.19;52.77
61761;BME280;47664;51.660;-0.100;2022-08-21T07:39:28;100912.75;;;18.62;52.58
61761;BME280;47664;51.660;-0.100;2022-08-21T07:42:00;100911.38;;;18.41;52.52
61761;BME280;47664;51.660;-0.100;2022-08-21T07:44:33;100905.94;;;18.45;52.09
61761;BME280;47664;51.660;-0.100;2022-08-21T07:47:05;100902.63;;;18.76;51.21
61761;BME280;47664;51.660;-0.100;2022-08-21T07:49:38;100906.35;;;18.85;51.18
61761;BME280;47664;51.660;-0.100;2022-08-21T07:52:10;100908.69;;;19.10;51.28
61761;BME280;47664;51.660;-0.100;2022-08-21T07:54:42;100909.06;;;18.97;50.80
61761;BME280;47664;51.660;-0.100;2022-08-21T07:57:14;100907.21;;;19.01;51.03
61761;BME280;47664;51.660;-0.100;2022-08-21T07:59:46;100907.46;;;19.35;50.63
61761;BME280;47664;51.660;-0.100;2022-08-21T08:02:22;100911.69;;;19.18;50.88
61761;BME280;47664;51.660;-0.100;2022-08-21T08:04:54;100915.97;;;19.04;50.32
61761;BME280;47664;51.660;-0.100;2022-08-21T08:07:29;100909.63;;;19.33;50.19
61761;BME280;47664;51.660;-0.100;2022-08-21T08:10:02;100903.17;;;19.33;50.32
61761;BME280;47664;51.660;-0.100;2022-08-21T08:12:34;100897.79;;;19.34;50.08
61761;BME280;47664;51.660;-0.100;2022-08-21T08:15:08;100897.25;;;19.26;50.10
61761;BME280;47664;51.660;-0.100;2022-08-21T08:17:41;100903.25;;;19.33;49.69
61761;BME280;47664;51.660;-0.100;2022-08-21T08:20:15;100900.69;;;19.24;49.93
61761;BME280;47664;51.660;-0.100;2022-08-21T08:22:48;100904.98;;;19.01;49.98
61761;BME280;47664;51.660;-0.100;2022-08-21T08:25:21;100908.26;;;19.17;49.76
61761;BME280;47664;51.660;-0.100;2022-08-21T08:27:53;100911.08;;;19.35;49.69
61761;BME280;47664;51.660;-0.100;2022-08-21T08:30:26;100913.02;;;19.79;49.37
61761;BME280;47664;51.660;-0.100;2022-08-21T08:32:57;100912.51;;;19.97;48.62
61761;BME280;47664;51.660;-0.100;2022-08-21T08:35:29;100910.03;;;19.31;50.47
61761;BME280;47664;51.660;-0.100;2022-08-21T08:38:01;100903.00;;;19.45;50.31
61761;BME280;47664;51.660;-0.100;2022-08-21T08:40:38;100900.08;;;19.77;49.13
61761;BME280;47664;51.660;-0.100;2022-08-21T08:43:12;100900.19;;;19.87;48.71
61761;BME280;47664;51.660;-0.100;2022-08-21T08:45:46;100896.05;;;19.72;48.85
61761;BME280;47664;51.660;-0.100;2022-08-21T08:48:31;100895.26;;;20.67;48.17
61761;BME280;47664;51.660;-0.100;2022-08-21T08:51:08;100897.83;;;20.13;47.43
61761;BME280;47664;51.660;-0.100;2022-08-21T08:53:48;100895.16;;;20.51;47.32
61761;BME280;47664;51.660;-0.100;2022-08-21T08:56:27;100890.83;;;20.53;47.42
61761;BME280;47664;51.660;-0.100;2022-08-21T08:59:03;100887.90;;;19.98;47.93
61761;BME280;47664;51.660;-0.100;2022-08-21T09:01:36;100889.91;;;20.29;48.30
61761;BME280;47664;51.660;-0.100;2022-08-21T09:04:09;100886.05;;;20.54;47.71
61761;BME280;47664;51.660;-0.100;2022-08-21T09:06:46;100890.48;;;20.55;47.78
61761;BME280;47664;51.660;-0.100;2022-08-21T09:09:29;100890.05;;;20.42;47.39
61761;BME280;47664;51.660;-0.100;2022-08-21T09:12:04;100888.71;;;20.90;47.00
61761;BME280;47664;51.660;-0.100;2022-08-21T09:14:45;100895.64;;;20.58;46.98
61761;BME280;47664;51.660;-0.100;2022-08-21T09:17:26;100898.83;;;20.51;46.79
61761;BME280;47664;51.660;-0.100;2022-08-21T09:20:11;100895.73;;;21.05;46.86
61761;BME280;47664;51.660;-0.100;2022-08-21T09:22:47;100898.50;;;20.21;46.85
61761;BME280;47664;51.660;-0.100;2022-08-21T09:25:21;100901.72;;;20.29;46.97
61761;BME280;47664;51.660;-0.100;2022-08-21T09:27:53;100898.30;;;20.90;45.40
61761;BME280;47664;51.660;-0.100;2022-08-21T09:30:31;100899.83;;;20.79;45.94
61761;BME280;47664;51.660;-0.100;2022-08-21T09:33:04;100903.11;;;20.55;46.34
61761;BME280;47664;51.660;-0.100;2022-08-21T09:35:36;100908.50;;;20.38;46.50
61761;BME280;47664;51.660;-0.100;2022-08-21T09:38:06;100909.18;;;21.24;44.89
61761;BME280;47664;51.660;-0.100;2022-08-21T09:40:43;100909.43;;;21.52;44.05
61761;BME280;47664;51.660;-0.100;2022-08-21T09:43:17;100910.60;;;20.96;44.78
61761;BME280;47664;51.660;-0.100;2022-08-21T09:46:01;100912.53;;;20.39;45.89
61761;BME280;47664;51.660;-0.100;2022-08-21T09:48:43;100919.02;;;20.40;46.21
61761;BME280;47664;51.660;-0.100;2022-08-21T09:51:17;100918.83;;;20.74;45.73
61761;BME280;47664;51.660;-0.100;2022-08-21T09:53:53;100919.50;;;20.84;45.36
61761;BME280;47664;51.660;-0.100;2022-08-21T09:56:28;100922.38;;;20.95;45.24
61761;BME280;47664;51.660;-0.100;2022-08-21T09:59:01;100922.72;;;20.93;44.47
61761;BME280;47664;51.660;-0.100;2022-08-21T10:01:33;100921.05;;;21.35;44.52
61761;BME280;47664;51.660;-0.100;2022-08-21T10:04:14;100916.42;;;21.29;43.78
61761;BME280;47664;51.660;-0.100;2022-08-21T10:06:46;100922.15;;;21.07;44.55
61761;BME280;47664;51.660;-0.100;2022-08-21T10:09:20;100913.45;;;20.85;43.90
61761;BME280;47664;51.660;-0.100;2022-08-21T10:11:53;100914.41;;;20.50;44.65
61761;BME280;47664;51.660;-0.100;2022-08-21T10:14:37;100908.10;;;21.10;43.79
61761;BME280;47664;51.660;-0.100;2022-08-21T10:17:13;100913.01;;;20.74;44.36
61761;BME280;47664;51.660;-0.100;2022-08-21T10:19:50;100912.64;;;20.79;44.40
61761;BME280;47664;51.660;-0.100;2022-08-21T10:22:31;100913.78;;;20.98;42.94
61761;BME280;47664;51.660;-0.100;2022-08-21T10:25:08;100914.76;;;20.99;43.21
61761;BME280;47664;51.660;-0.100;2022-08-21T10:27:51;100909.41;;;20.88;43.55
61761;BME280;47664;51.660;-0.100;2022-08-21T10:30:31;100908.60;;;21.03;43.35
61761;BME280;47664;51.660;-0.100;2022-08-21T10:33:11;100912.35;;;20.73;43.76
61761;BME280;47664;51.660;-0.100;2022-08-21T10:35:51;100912.51;;;20.82;43.91
61761;BME280;47664;51.660;-0.100;2022-08-21T10:39:11;100908.54;;;21.04;43.51
61761;BME280;47664;51.660;-0.100;2022-08-21T10:41:54;100908.12;;;21.08;43.18
61761;BME280;47664;51.660;-0.100;2022-08-21T10:44:33;100905.08;;;21.76;42.23
61761;BME280;47664;51.660;-0.100;2022-08-21T10:47:08;100897.51;;;21.20;42.16
61761;BME280;47664;51.660;-0.100;2022-08-21T10:49:40;100894.70;;;20.86;42.44
61761;BME280;47664;51.660;-0.100;2022-08-21T10:52:28;100891.86;;;21.37;42.60
61761;BME280;47664;51.660;-0.100;2022-08-21T10:55:04;100894.12;;;21.51;41.73
61761;BME280;47664;51.660;-0.100;2022-08-21T10:57:40;100892.78;;;21.59;42.00
61761;BME280;47664;51.660;-0.100;2022-08-21T11:00:16;100892.23;;;21.58;41.82
61761;BME280;47664;51.660;-0.100;2022-08-21T11:02:49;100883.35;;;21.68;40.89
61761;BME280;47664;51.660;-0.100;2022-08-21T11:05:25;100888.73;;;21.64;41.59
61761;BME280;47664;51.660;-0.100;2022-08-21T11:07:58;100883.96;;;21.32;42.33
61761;BME280;47664;51.660;-0.100;2022-08-21T11:10:37;100886.17;;;21.28;41.45
61761;BME280;47664;51.660;-0.100;2022-08-21T11:13:12;100892.21;;;21.61;41.39
61761;BME280;47664;51.660;-0.100;2022-08-21T11:15:51;100892.48;;;21.29;41.94
61761;BME280;47664;51.660;-0.100;2022-08-21T11:18:26;100891.77;;;21.76;40.37
61761;BME280;47664;51.660;-0.100;2022-08-21T11:21:04;100892.59;;;21.46;40.92
61761;BME280;47664;51.660;-0.100;2022-08-21T11:23:41;100896.00;;;21.62;40.61
61761;BME280;47664;51.660;-0.100;2022-08-21T11:26:18;100901.47;;;21.70;40.63
61761;BME280;47664;51.660;-0.100;2022-08-21T11:28:54;100900.12;;;21.48;40.88
61761;BME280;47664;51.660;-0.100;2022-08-21T11:31:36;100905.80;;;21.43;41.11
61761;BME280;47664;51.660;-0.100;2022-08-21T11:34:15;100905.88;;;21.09;41.79
61761;BME280;47664;51.660;-0.100;2022-08-21T11:36:53;100908.08;;;21.34;41.01
61761;BME280;47664;51.660;-0.100;2022-08-21T11:39:33;100910.75;;;22.24;39.67
61761;BME280;47664;51.660;-0.100;2022-08-21T11:42:11;100916.14;;;22.06;39.49
61761;BME280;47664;51.660;-0.100;2022-08-21T11:44:48;100918.79;;;21.53;39.98
61761;BME280;47664;51.660;-0.100;2022-08-21T11:47:27;100913.95;;;21.86;39.67
61761;BME280;47664;51.660;-0.100;2022-08-21T11:50:06;100908.83;;;21.57;39.53
61761;BME280;47664;51.660;-0.100;2022-08-21T11:52:48;100912.58;;;21.46;40.10
61761;BME280;47664;51.660;-0.100;2022-08-21T11:55:19;100913.28;;;21.51;40.59
61761;BME280;47664;51.660;-0.100;2022-08-21T11:57:54;100911.41;;;21.48;40.30
61761;BME280;47664;51.660;-0.100;2022-08-21T12:00:25;100913.87;;;21.89;40.34
61761;BME280;47664;51.660;-0.100;2022-08-21T12:03:06;100914.90;;;21.54;40.62
61761;BME280;47664;51.660;-0.100;2022-08-21T12:05:38;100917.20;;;22.07;40.60
61761;BME280;47664;51.660;-0.100;2022-08-21T12:08:11;100919.15;;;21.53;40.34
61761;BME280;47664;51.660;-0.100;2022-08-21T12:10:46;100921.00;;;21.45;41.51
61761;BME280;47664;51.660;-0.100;2022-08-21T12:13:25;100920.84;;;21.26;41.03
61761;BME280;47664;51.660;-0.100;2022-08-21T12:16:04;100918.35;;;21.69;41.19
61761;BME280;47664;51.660;-0.100;2022-08-21T12:18:38;100915.36;;;21.37;41.36
61761;BME280;47664;51.660;-0.100;2022-08-21T12:21:20;100917.56;;;20.97;41.04
61761;BME280;47664;51.660;-0.100;2022-08-21T12:24:00;100919.75;;;21.12;40.66
61761;BME280;47664;51.660;-0.100;2022-08-21T12:26:34;100917.29;;;21.08;41.14
61761;BME280;47664;51.660;-0.100;2022-08-21T12:29:14;100913.72;;;21.22;41.25
61761;BME280;47664;51.660;-0.100;2022-08-21T12:31:54;100913.29;;;21.12;40.33
61761;BME280;47664;51.660;-0.100;2022-08-21T12:34:31;100913.69;;;21.73;39.58
61761;BME280;47664;51.660;-0.100;2022-08-21T12:37:15;100906.95;;;21.98;39.68
61761;BME280;47664;51.660;-0.100;2022-08-21T12:39:50;100905.30;;;21.60;39.02
61761;BME280;47664;51.660;-0.100;2022-08-21T12:42:29;100903.90;;;22.13;39.60
61761;BME280;47664;51.660;-0.100;2022-08-21T12:45:02;100905.96;;;22.08;39.72
61761;BME280;47664;51.660;-0.100;2022-08-21T12:47:34;100904.25;;;22.05;39.47
61761;BME280;47664;51.660;-0.100;2022-08-21T12:50:11;100894.03;;;22.61;38.03
61761;BME280;47664;51.660;-0.100;2022-08-21T12:52:48;100896.81;;;22.46;38.10
61761;BME280;47664;51.660;-0.100;2022-08-21T12:55:26;100890.94;;;22.77;37.53
61761;BME280;47664;51.660;-0.100;2022-08-21T12:57:59;100895.64;;;22.69;38.72
61761;BME280;47664;51.660;-0.100;2022-08-21T13:00:33;100899.66;;;22.17;39.17
61761;BME280;47664;51.660;-0.100;2022-08-21T13:03:05;100892.99;;;22.48;38.39
61761;BME280;47664;51.660;-0.100;2022-08-21T13:05:40;100889.72;;;23.26;36.72
61761;BME280;47664;51.660;-0.100;2022-08-21T13:08:13;100897.64;;;22.81;36.41
61761;BME280;47664;51.660;-0.100;2022-08-21T13:10:46;100887.33;;;22.92;36.63
61761;BME280;47664;51.660;-0.100;2022-08-21T13:13:23;100891.83;;;22.93;36.26
61761;BME280;47664;51.660;-0.100;2022-08-21T13:15:57;100883.31;;;22.96;35.68